Flight Track Log - Related Links

Times and Time Zones

All times are in EDT time to prevent confusion due to time zone crossing. See the UAL906 flight status page for this flight to view local times or setup timezone preferences in your user account.


Time Position Orientation Groundspeed Altitude Reporting Facility
EDT Latitude Longitude Course Direction KTS MPH feet Rate Location/Type
Tue 07:09:37 PM 41.9960 -87.9390 318° Northwest 164 189 1,500  Level FlightAware ADS-B
Tue 07:10:07 PM 42.0150 -87.9610 319° Northwest 203 234 2,200 2,000 Climbing FlightAware ADS-B
Tue 07:10:37 PM 42.0400 -87.9870 322° Northwest 218 251 3,500 2,400 Climbing FlightAware ADS-B
Tue 07:11:02 PM 42.0620 -88.0080 325° Northwest 242 278 4,400 2,182 Climbing FlightAware ADS-B
Tue 07:11:32 PM 42.0940 -88.0240 340° North 260 299 5,500 2,300 Climbing FlightAware ADS-B
Tue 07:12:02 PM 42.1290 -88.0350 347° North 281 323 6,700 2,618 Climbing FlightAware ADS-B
Tue 07:12:27 PM 42.1660 -88.0330 North 290 334 7,900 2,618 Climbing FlightAware ADS-B
Tue 07:12:57 PM 42.2080 -88.0290 North 304 350 9,100 2,400 Climbing FlightAware ADS-B
Tue 07:13:37 PM 42.2640 -88.0230 North 318 366 10,700 1,694 Climbing FlightAware ADS-B
Tue 07:14:22 PM 42.3350 -88.0150 North 369 425 11,500 1,482 Climbing FlightAware ADS-B
Tue 07:15:02 PM 42.4060 -88.0070 North 396 456 12,800 2,100 Climbing FlightAware ADS-B
Tue 07:15:42 PM 42.4820 -87.9830 13° North 423 487 14,300 2,259 Climbing FlightAware ADS-B
Tue 07:16:27 PM 42.5570 -87.9180 33° Northeast 442 509 16,000 2,188 Climbing FlightAware ADS-B
Tue 07:17:07 PM 42.6220 -87.8490 38° Northeast 453 521 17,400 2,175 Climbing FlightAware ADS-B
Tue 07:17:47 PM 42.6910 -87.7770 37° Northeast 462 532 18,900 2,118 Climbing FlightAware ADS-B
Tue 07:18:32 PM 42.7670 -87.6970 38° Northeast 470 541 20,400 1,200 Climbing FlightAware ADS-B
Tue 07:19:12 PM 42.8300 -87.6310 38° Northeast 472 543 20,600 1,624 Climbing FlightAware ADS-B
Tue 07:19:57 PM 42.9120 -87.5420 38° Northeast 492 566 22,700 2,259 Climbing FlightAware ADS-B
Tue 07:20:37 PM 42.9880 -87.4590 39° Northeast 503 579 23,800 1,133 Climbing FlightAware ADS-B
Tue 07:21:27 PM 43.0730 -87.3660 39° Northeast 509 586 24,400 1,440 Climbing FlightAware ADS-B
Tue 07:22:17 PM 43.1720 -87.2560 39° Northeast 521 600 26,200 1,800 Climbing FlightAware ADS-B
Tue 07:22:57 PM 43.2490 -87.1710 39° Northeast 529 609 27,100 1,553 Climbing FlightAware ADS-B
Tue 07:23:42 PM 43.3320 -87.0790 39° Northeast 530 610 28,400 1,835 Climbing FlightAware ADS-B
Tue 07:24:22 PM 43.4110 -86.9910 39° Northeast 527 606 29,700 1,840 Climbing FlightAware ADS-B
Tue 07:24:57 PM 43.4760 -86.9180 39° Northeast 524 603 30,700 1,553 Climbing FlightAware ADS-B
Tue 07:25:47 PM 43.5690 -86.8150 39° Northeast 523 602 31,900 1,400 Climbing FlightAware ADS-B
Tue 07:26:27 PM 43.6440 -86.7300 39° Northeast 523 602 32,800 776 Climbing FlightAware ADS-B
Tue 07:27:12 PM 43.7280 -86.6360 39° Northeast 523 602 33,000 141 Climbing FlightAware ADS-B
Tue 07:27:52 PM 43.8010 -86.5530 39° Northeast 520 598 33,000  Level FlightAware ADS-B
Tue 07:28:37 PM 43.8800 -86.4630 39° Northeast 519 597 33,000  Level FlightAware ADS-B
Tue 07:29:07 PM 43.9400 -86.3950 39° Northeast 519 597 33,000  Level FlightAware ADS-B
Tue 07:30:02 PM 44.0470 -86.2720 40° Northeast 521 600 33,000  Level FlightAware ADS-B
Tue 07:30:42 PM 44.1210 -86.1870 39° Northeast 522 601 33,000  Level FlightAware ADS-B
Tue 07:31:22 PM 44.1920 -86.1050 40° Northeast 522 601 33,000  Level FlightAware ADS-B
Tue 07:32:07 PM 44.2740 -86.0110 39° Northeast 522 601 33,000  Level FlightAware ADS-B
Tue 07:32:47 PM 44.3520 -85.9200 40° Northeast 523 602 33,000  Level FlightAware ADS-B
Tue 07:33:32 PM 44.4330 -85.8250 40° Northeast 525 604 33,000  Level FlightAware ADS-B
Tue 07:34:12 PM 44.5110 -85.7340 40° Northeast 525 604 33,000  Level FlightAware ADS-B
Tue 07:34:52 PM 44.5830 -85.6500 40° Northeast 526 605 33,000  Level FlightAware ADS-B
Tue 07:35:37 PM 44.6660 -85.5520 40° Northeast 526 605 33,000  Level FlightAware ADS-B
Tue 07:36:17 PM 44.7390 -85.4610 42° Northeast 529 609 33,000  Level FlightAware ADS-B
Tue 07:37:02 PM 44.8230 -85.3540 42° Northeast 530 610 33,000  Level FlightAware ADS-B
Tue 07:37:37 PM 44.8850 -85.2750 42° Northeast 531 611 33,000  Level FlightAware ADS-B
Tue 07:38:27 PM 44.9750 -85.1600 42° Northeast 531 611 33,000  Level FlightAware ADS-B
Tue 07:39:02 PM 45.0390 -85.0790 42° Northeast 531 611 33,000  Level FlightAware ADS-B
Tue 07:39:47 PM 45.1230 -84.9710 42° Northeast 531 611 33,000  Level FlightAware ADS-B
Tue 07:40:27 PM 45.1910 -84.8830 42° Northeast 532 612 33,000  Level FlightAware ADS-B
Tue 07:41:12 PM 45.2770 -84.7720 42° Northeast 531 611 33,000  Level FlightAware ADS-B
Tue 07:41:57 PM 45.3610 -84.6630 42° Northeast 532 612 33,000  Level FlightAware ADS-B
Tue 07:42:37 PM 45.4320 -84.5710 42° Northeast 532 612 33,000  Level FlightAware ADS-B
Tue 07:43:17 PM 45.5050 -84.4750 43° Northeast 532 612 33,000  Level FlightAware ADS-B
Tue 07:44:02 PM 45.5860 -84.3690 42° Northeast 533 613 33,000  Level FlightAware ADS-B
Tue 07:44:42 PM 45.6580 -84.2750 42° Northeast 534 615 33,000  Level FlightAware ADS-B
Tue 07:45:27 PM 45.7380 -84.1690 43° Northeast 533 613 33,000  Level FlightAware ADS-B
Tue 07:46:07 PM 45.8110 -84.0710 43° Northeast 532 612 33,000  Level FlightAware ADS-B
Tue 07:46:47 PM 45.8830 -83.9750 43° Northeast 533 613 33,000  Level FlightAware ADS-B
Tue 07:47:32 PM 45.9650 -83.8650 43° Northeast 534 615 33,000  Level FlightAware ADS-B
Tue 07:48:12 PM 46.0380 -83.7680 43° Northeast 534 615 33,000  Level FlightAware ADS-B
Tue 07:48:57 PM 46.1180 -83.6600 43° Northeast 534 615 33,000  Level FlightAware ADS-B
Tue 07:49:37 PM 46.1890 -83.5640 43° Northeast 532 612 33,000  Level FlightAware ADS-B
Tue 07:50:17 PM 46.2610 -83.4650 44° Northeast 531 611 33,000  Level FlightAware ADS-B
Tue 07:51:02 PM 46.3430 -83.3530 43° Northeast 529 609 33,000  Level FlightAware ADS-B
Tue 07:51:42 PM 46.4130 -83.2570 43° Northeast 527 606 33,000  Level FlightAware ADS-B
Tue 07:52:22 PM 46.4840 -83.1600 43° Northeast 525 604 33,000  Level FlightAware ADS-B
Tue 07:53:07 PM 46.5610 -83.0520 44° Northeast 522 601 33,000  Level FlightAware ADS-B
Tue 07:53:47 PM 46.6300 -82.9570 43° Northeast 519 597 33,000  Level FlightAware ADS-B
Tue 07:54:27 PM 46.6990 -82.8610 44° Northeast 516 594 33,000  Level FlightAware ADS-B
Tue 07:55:12 PM 46.7780 -82.7510 44° Northeast 514 592 33,000  Level FlightAware ADS-B
Tue 07:55:52 PM 46.8380 -82.6690 43° Northeast 513 590 33,000  Level FlightAware ADS-B
Tue 07:56:27 PM 46.9000 -82.5790 45° Northeast 512 589 33,000  Level FlightAware ADS-B
Tue 07:57:17 PM 46.9720 -82.4770 44° Northeast 512 589 33,000  Level FlightAware ADS-B
Tue 07:57:57 PM 47.0300 -82.3950 44° Northeast 512 589 33,000  Level FlightAware ADS-B
Tue 07:58:37 PM 47.0880 -82.3120 44° Northeast 512 589 33,000  Level FlightAware ADS-B
Tue 07:59:17 PM 47.1460 -82.2300 44° Northeast 512 589 33,000  Level FlightAware ADS-B
Tue 08:00:07 PM 47.2190 -82.1270 44° Northeast 512 589 33,000  Level FlightAware ADS-B
Tue 08:00:47 PM 47.2770 -82.0450 44° Northeast 512 589 33,000  Level FlightAware ADS-B
Tue 08:01:27 PM 47.3340 -81.9620 45° Northeast 512 589 33,000  Level FlightAware ADS-B
Tue 08:02:07 PM 47.3920 -81.8800 44° Northeast 512 589 33,000  Level FlightAware ADS-B
Tue 08:02:47 PM 47.4500 -81.7970 44° Northeast 512 589 33,000  Level FlightAware ADS-B
Tue 08:03:37 PM 47.5230 -81.6940 44° Northeast 512 589 33,000  Level FlightAware ADS-B
Tue 08:04:17 PM 47.5810 -81.6110 44° Northeast 512 589 33,000  Level FlightAware ADS-B
Tue 08:04:57 PM 47.6390 -81.5280 44° Northeast 512 589 33,000  Level FlightAware ADS-B
Tue 08:05:37 PM 47.6970 -81.4450 44° Northeast 512 589 33,000  Level FlightAware ADS-B
Tue 08:06:09 PM 47.9000 -81.1333 44° Northeast 530 610 33,000  Level Montreal Center
Tue 08:07:09 PM 48.0167 -80.9667 44° Northeast 530 610 33,000  Level Montreal Center
Tue 08:08:09 PM 48.1000 -80.8167 50° Northeast 520 598 33,000  Level Montreal Center
Tue 08:09:09 PM 48.2167 -80.6500 44° Northeast 520 598 33,000  Level Montreal Center
Tue 08:10:09 PM 48.3000 -80.5167 47° Northeast 510 587 33,000  Level Montreal Center
Tue 08:11:09 PM 48.4167 -80.3167 49° Northeast 520 598 33,000  Level Montreal Center
Tue 08:12:09 PM 48.5000 -80.1833 47° Northeast 520 598 33,000  Level Montreal Center
Tue 08:13:09 PM 48.6000 -80.0167 48° Northeast 520 598 33,000  Level Montreal Center
Tue 08:14:09 PM 48.7000 -79.8333 50° Northeast 520 598 33,000  Level Montreal Center
Tue 08:15:09 PM 48.7833 -79.7000 46° Northeast 520 598 33,000  Level Montreal Center
Tue 08:16:09 PM 48.9000 -79.5167 46° Northeast 520 598 33,000  Level Montreal Center
Tue 08:17:09 PM 48.9833 -79.3500 53° Northeast 520 598 33,000  Level Montreal Center
Tue 08:18:09 PM 49.0833 -79.1833 47° Northeast 520 598 33,000  Level Montreal Center
Tue 08:19:09 PM 49.1833 -79.0333 44° Northeast 520 598 33,000  Level Montreal Center
Tue 08:20:09 PM 49.2833 -78.8500 50° Northeast 520 598 33,000  Level Montreal Center
Tue 08:21:09 PM 49.3667 -78.6833 52° Northeast 510 587 33,000  Level Montreal Center
Tue 08:22:09 PM 49.4833 -78.5000 46° Northeast 530 610 33,000  Level Montreal Center
Tue 08:23:09 PM 49.5667 -78.3500 49° Northeast 520 598 33,000  Level Montreal Center
Tue 08:24:09 PM 49.6500 -78.1667 55° Northeast 520 598 33,000  Level Montreal Center
Tue 08:25:09 PM 49.7500 -78.0000 47° Northeast 520 598 33,000  Level Montreal Center
Tue 08:26:09 PM 49.8500 -77.8500 44° Northeast 510 587 33,000  Level Montreal Center
Tue 08:27:09 PM 49.9500 -77.6667 50° Northeast 510 587 33,000  Level Montreal Center
Tue 08:28:09 PM 50.0333 -77.5167 49° Northeast 510 587 33,000  Level Montreal Center
Tue 08:29:09 PM 50.1167 -77.3333 55° Northeast 510 587 33,000  Level Montreal Center
Tue 08:30:09 PM 50.2167 -77.1500 50° Northeast 510 587 33,000  Level Montreal Center
Tue 08:31:09 PM 50.3000 -77.0000 49° Northeast 510 587 33,000  Level Montreal Center
Tue 08:32:09 PM 50.4000 -76.8167 49° Northeast 520 598 33,000  Level Montreal Center
Tue 08:33:09 PM 50.5000 -76.6333 49° Northeast 510 587 33,000  Level Montreal Center
Tue 08:34:09 PM 50.5833 -76.4667 52° Northeast 520 598 33,000  Level Montreal Center
Tue 08:35:09 PM 50.6833 -76.2833 49° Northeast 520 598 33,000  Level Montreal Center
Tue 08:36:09 PM 50.7667 -76.1000 54° Northeast 520 598 33,000  Level Montreal Center
Tue 08:37:09 PM 50.8667 -75.9333 46° Northeast 520 598 33,000  Level Montreal Center
Tue 08:38:09 PM 50.9500 -75.7500 54° Northeast 510 587 33,000  Level Montreal Center
Tue 08:39:09 PM 51.0500 -75.5667 49° Northeast 520 598 33,000  Level Montreal Center
Tue 08:40:09 PM 51.1333 -75.3667 56° Northeast 520 598 33,000  Level Montreal Center
Tue 08:41:09 PM 51.2167 -75.2167 48° Northeast 520 598 33,000  Level Montreal Center
Tue 08:42:09 PM 51.3167 -75.0167 51° Northeast 520 598 33,000  Level Montreal Center
Tue 08:43:09 PM 51.4000 -74.8333 54° Northeast 520 598 33,000  Level Montreal Center
Tue 08:44:09 PM 51.5000 -74.6667 46° Northeast 510 587 33,000  Level Montreal Center
Tue 08:45:09 PM 51.5833 -74.4667 56° Northeast 510 587 33,000  Level Montreal Center
Tue 08:46:09 PM 51.6667 -74.3167 48° Northeast 510 587 33,000  Level Montreal Center
Tue 08:47:09 PM 51.7667 -74.1167 51° Northeast 510 587 33,000  Level Montreal Center
Tue 08:48:09 PM 51.8333 -73.9500 57° Northeast 510 587 33,000  Level Montreal Center
Tue 08:49:09 PM 51.9333 -73.7500 51° Northeast 500 575 33,000  Level Montreal Center
Tue 08:50:09 PM 52.0167 -73.5500 56° Northeast 510 587 33,000  Level Montreal Center
Tue 08:51:09 PM 52.1000 -73.3833 51° Northeast 510 587 33,000  Level Montreal Center
Tue 08:52:09 PM 52.1833 -73.1833 56° Northeast 510 587 33,000  Level Montreal Center
Tue 08:53:09 PM 52.2833 -73.0167 46° Northeast 510 587 33,000  Level Montreal Center
Tue 08:54:09 PM 52.3500 -72.8167 61° Northeast 510 587 33,000  Level Montreal Center
Tue 08:55:09 PM 52.4333 -72.6500 51° Northeast 500 575 33,000  Level Montreal Center
Tue 08:56:09 PM 52.5333 -72.4500 51° Northeast 500 575 33,000  Level Montreal Center
Tue 08:57:09 PM 52.6167 -72.2833 50° Northeast 480 552 33,000  Level Montreal Center
Tue 08:58:09 PM 52.6833 -72.1000 59° Northeast 490 564 33,000  Level Montreal Center
Tue 08:59:09 PM 52.7667 -71.9000 55° Northeast 490 564 33,000  Level Montreal Center
Tue 09:00:09 PM 52.8500 -71.7333 50° Northeast 490 564 33,000  Level Montreal Center
Tue 09:01:09 PM 52.9167 -71.5167 63° Northeast 500 575 33,000  Level Montreal Center
Tue 09:02:09 PM 53.0000 -71.3500 50° Northeast 500 575 33,000  Level Montreal Center
Tue 09:03:09 PM 53.0833 -71.1667 53° Northeast 500 575 33,000  Level Montreal Center
Tue 09:04:09 PM 53.1667 -70.9667 55° Northeast 510 587 33,000  Level Montreal Center
Tue 09:05:09 PM 53.2500 -70.7500 57° Northeast 510 587 33,000  Level Montreal Center
Tue 09:06:09 PM 53.3333 -70.5667 53° Northeast 510 587 33,000  Level Montreal Center
Tue 09:07:09 PM 53.4167 -70.3667 55° Northeast 510 587 33,000  Level Montreal Center
Tue 09:08:09 PM 53.5000 -70.1500 57° Northeast 510 587 33,000  Level Montreal Center
Tue 09:09:28 PM 53.6000 -69.9500 50° Northeast 500 575 33,000  Level Gander Center
Tue 09:10:28 PM 53.6667 -69.7667 58° Northeast 500 575 33,000  Level Gander Center
Tue 09:11:09 PM 53.7333 -69.5833 58° Northeast 500 575 33,000  Level Montreal Center
Tue 09:12:09 PM 53.8167 -69.4000 52° Northeast 500 575 33,000  Level Montreal Center
Tue 09:13:09 PM 53.8833 -69.2167 58° Northeast 500 575 33,000  Level Montreal Center
Tue 09:14:09 PM 53.9667 -69.0000 57° Northeast 500 575 33,000  Level Montreal Center
Tue 09:15:09 PM 54.0333 -68.8167 58° Northeast 500 575 33,000  Level Montreal Center
Tue 09:16:09 PM 54.1333 -68.6333 47° Northeast 500 575 33,000  Level Montreal Center
Tue 09:16:28 PM 54.1500 -68.6000 50° Northeast 510 587 33,000  Level Gander Center
Tue 09:17:09 PM 54.2000 -68.4167 65° Northeast 500 575 33,000  Level Montreal Center
Tue 09:18:09 PM 54.2833 -68.2000 57° Northeast 500 575 33,000  Level Montreal Center
Tue 09:19:09 PM 54.3500 -68.0000 60° Northeast 500 575 33,000  Level Montreal Center
Tue 09:20:09 PM 54.4333 -67.7833 56° Northeast 500 575 33,000  Level Montreal Center
Tue 09:21:09 PM 54.5167 -67.6000 52° Northeast 500 575 33,000  Level Montreal Center
Tue 09:22:09 PM 54.5833 -67.4000 60° Northeast 500 575 33,000  Level Montreal Center
Tue 09:23:09 PM 54.6500 -67.1833 62° Northeast 500 575 33,000  Level Montreal Center
Tue 09:24:09 PM 54.7500 -66.9833 49° Northeast 490 564 33,000  Level Montreal Center
Tue 09:24:28 PM 54.7500 -66.9667 90° East 510 587 33,000  Level Gander Center
Tue 09:25:09 PM 54.8167 -66.8000 55° Northeast 510 587 33,000  Level Montreal Center
Tue 09:26:09 PM 54.8833 -66.5833 62° Northeast 500 575 33,000  Level Montreal Center
Tue 09:26:28 PM 54.9000 -66.5667 30° Northeast 510 587 33,000  Level Gander Center
Tue 09:27:28 PM 54.9833 -66.3500 56° Northeast 500 575 33,000  Level Gander Center
Tue 09:28:09 PM 55.0333 -66.1500 66° East 530 610 33,000  Level Montreal Center
Tue 09:29:09 PM 55.1000 -65.9667 58° Northeast 490 564 33,000  Level Montreal Center
Tue 09:29:28 PM 55.1333 -65.9333 30° Northeast 500 575 33,000  Level Gander Center
Tue 09:30:09 PM 55.1667 -65.7667 71° East 500 575 33,000  Level Montreal Center
Tue 09:31:09 PM 55.2500 -65.5333 58° Northeast 500 575 33,000  Level Montreal Center
Tue 09:31:28 PM 55.2833 -65.5333 360° North 500 575 33,000  Level Gander Center
Tue 09:32:09 PM 55.3167 -65.3333 74° East 500 575 33,000  Level Montreal Center
Tue 09:33:09 PM 55.3833 -65.1167 61° Northeast 500 575 33,000  Level Montreal Center
Tue 09:33:28 PM 55.4167 -65.1000 16° North 500 575 33,000  Level Gander Center
Tue 09:34:28 PM 55.4833 -64.9167 57° Northeast 500 575 33,000  Level Gander Center
Tue 09:35:09 PM 55.5333 -64.6833 69° East 490 564 33,000  Level Montreal Center
Tue 09:36:09 PM 55.6167 -64.4833 54° Northeast 490 564 33,000  Level Montreal Center
Tue 09:36:28 PM 55.6333 -64.4833 360° North 500 575 33,000  Level Gander Center
Tue 09:37:28 PM 55.7000 -64.2500 63° Northeast 500 575 33,000  Level Gander Center
Tue 09:38:09 PM 55.7500 -64.0500 66° East 500 575 33,000  Level Montreal Center
Tue 09:39:09 PM 55.8167 -63.8500 59° Northeast 500 575 33,000  Level Montreal Center
Tue 09:40:07 PM 55.8833 -63.7167 48° Northeast 490 564 33,000  Level Gander Center
Tue 09:41:07 PM 55.9500 -63.4667 64° Northeast 510 587 33,000  Level Gander Center
Tue 09:42:07 PM 56.0167 -63.2500 61° Northeast 500 575 33,000  Level Gander Center
Tue 09:42:28 PM 56.0500 -63.1667 54° Northeast 500 575 33,000  Level Gander Center
Tue 09:43:28 PM 56.1000 -62.9667 66° East 500 575 33,000  Level Gander Center
Tue 09:44:28 PM 56.2000 -62.7167 54° Northeast 500 575 33,000  Level Gander Center
Tue 09:45:28 PM 56.2500 -62.5167 66° East 510 587 33,000  Level Gander Center
Tue 09:46:09 PM 56.2833 -62.3500 70° East 490 564 33,000  Level Montreal Center
Tue 09:47:09 PM 56.3667 -62.1000 59° Northeast 500 575 33,000  Level Montreal Center
Tue 09:47:28 PM 56.3833 -62.0667 48° Northeast 510 587 33,000  Level Gander Center
Tue 09:48:28 PM 56.4500 -61.8500 61° Northeast 510 587 33,000  Level Gander Center
Tue 09:49:28 PM 56.5167 -61.6167 63° Northeast 510 587 33,000  Level Gander Center
Tue 09:50:28 PM 56.5833 -61.4000 61° Northeast 510 587 33,000  Level Gander Center
Tue 09:51:07 PM 56.6333 -61.2500 59° Northeast 520 598 33,000  Level Gander Center
Tue 09:51:28 PM 56.6500 -61.1667 70° East 500 575 33,000  Level Gander Center
Tue 09:52:28 PM 56.7167 -60.9167 64° Northeast 510 587 33,000  Level Gander Center
Tue 09:53:28 PM 56.7833 -60.7000 61° Northeast 500 575 33,000  Level Gander Center
Tue 09:54:28 PM 56.8500 -60.4500 64° Northeast 500 575 33,000  Level Gander Center
Tue 09:55:28 PM 56.9167 -60.2500 59° Northeast 510 587 33,000  Level Gander Center
Tue 09:56:28 PM 56.9833 -60.0000 64° Northeast 520 598 33,000  Level Gander Center
Tue 09:57:28 PM 57.0500 -59.7500 64° Northeast 510 587 33,000  Level Gander Center
Tue 09:58:28 PM 57.1000 -59.5333 67° East 520 598 33,000  Level Gander Center
Tue 09:59:28 PM 57.1500 -59.2833 70° East 520 598 33,000  Level Gander Center
Tue 10:00:28 PM 57.2167 -59.0333 64° Northeast 520 598 33,000  Level Gander Center
Tue 10:01:28 PM 57.2500 -58.7500 78° East 540 621 33,000  Level Gander Center
Tue 10:02:28 PM 57.2667 -58.4667 84° East 540 621 33,000  Level Gander Center
Tue 10:03:28 PM 57.3000 -58.2000 77° East 550 633 33,000  Level Gander Center
Tue 10:04:07 PM 57.3167 -58.0333 79° East 550 633 33,000  Level Gander Center
Tue 10:04:28 PM 57.3333 -57.9167 75° East 550 633 33,000  Level Gander Center
Tue 10:05:07 PM 57.3333 -57.7500 90° East 550 633 33,000  Level Gander Center
Tue 10:05:28 PM 57.3500 -57.6333 75° East 550 633 33,000  Level Gander Center
Tue 10:06:28 PM 57.3833 -57.3833 76° East 550 633 33,000  Level Gander Center
Tue 10:07:28 PM 57.4000 -57.1000 84° East 550 633 33,000  Level Gander Center
Tue 10:09:00 PM 57.4438 -56.7109 78° East  Level FlightAware Approximate
Tue 10:16:00 PM 57.6285 -54.9232 78° East  Level FlightAware Approximate
Tue 10:17:00 PM 57.6529 -54.6664 80° East  Level FlightAware Approximate
Tue 10:18:00 PM 57.6767 -54.4092 80° East  Level FlightAware Approximate
Tue 10:19:00 PM 57.6999 -54.1517 80° East  Level FlightAware Approximate
Tue 10:20:00 PM 57.7227 -53.8939 81° East  Level FlightAware Approximate
Tue 10:21:00 PM 57.7449 -53.6357 81° East  Level FlightAware Approximate
Tue 10:22:00 PM 57.7666 -53.3773 81° East  Level FlightAware Approximate
Tue 10:23:00 PM 57.7878 -53.1185 81° East  Level FlightAware Approximate
Tue 10:24:00 PM 57.8084 -52.8594 81° East  Level FlightAware Approximate
Tue 10:25:00 PM 57.8285 -52.6001 82° East  Level FlightAware Approximate
Tue 10:26:00 PM 57.8481 -52.3404 82° East  Level FlightAware Approximate
Tue 10:27:00 PM 57.8672 -52.0805 82° East  Level FlightAware Approximate
Tue 10:28:00 PM 57.8857 -51.8203 82° East  Level FlightAware Approximate
Tue 10:29:00 PM 57.9037 -51.5598 82° East  Level FlightAware Approximate
Tue 10:30:00 PM 57.9212 -51.2991 83° East  Level FlightAware Approximate
Tue 10:31:00 PM 57.9381 -51.0382 83° East  Level FlightAware Approximate
Tue 10:32:00 PM 57.9545 -50.7769 83° East  Level FlightAware Approximate
Tue 10:33:00 PM 57.9703 -50.5155 83° East  Level FlightAware Approximate
Tue 10:34:00 PM 57.9857 -50.2538 84° East  Level FlightAware Approximate
Tue 10:35:00 PM 58.0003 -49.9914 86° East  Level FlightAware Approximate
Tue 10:36:00 PM 58.0104 -49.7286 86° East  Level FlightAware Approximate
Tue 10:37:00 PM 58.0199 -49.4657 86° East  Level FlightAware Approximate
Tue 10:38:00 PM 58.0288 -49.2026 86° East  Level FlightAware Approximate
Tue 10:39:00 PM 58.0373 -48.9394 86° East  Level FlightAware Approximate
Tue 10:40:00 PM 58.0451 -48.6761 87° East  Level FlightAware Approximate
Tue 10:41:00 PM 58.0524 -48.4127 87° East  Level FlightAware Approximate
Tue 10:42:00 PM 58.0592 -48.1492 87° East  Level FlightAware Approximate
Tue 10:43:00 PM 58.0655 -47.8855 87° East  Level FlightAware Approximate
Tue 10:44:00 PM 58.0712 -47.6218 88° East  Level FlightAware Approximate
Tue 10:45:00 PM 58.0763 -47.3580 88° East  Level FlightAware Approximate
Tue 10:46:00 PM 58.0809 -47.0942 88° East  Level FlightAware Approximate
Tue 10:47:00 PM 58.0850 -46.8302 88° East  Level FlightAware Approximate
Tue 10:48:00 PM 58.0885 -46.5663 88° East  Level FlightAware Approximate
Tue 10:49:00 PM 58.0914 -46.3022 89° East  Level FlightAware Approximate
Tue 10:50:00 PM 58.0939 -46.0382 89° East  Level FlightAware Approximate
Tue 10:51:00 PM 58.0957 -45.7741 89° East  Level FlightAware Approximate
Tue 10:52:00 PM 58.0971 -45.5099 89° East  Level FlightAware Approximate
Tue 10:53:00 PM 58.0979 -45.2458 90° East  Level FlightAware Approximate
Tue 10:54:00 PM 58.0981 -44.9817 90° East  Level FlightAware Approximate
Tue 10:55:00 PM 58.0978 -44.7175 90° East  Level FlightAware Approximate
Tue 10:56:00 PM 58.0969 -44.4534 90° East  Level FlightAware Approximate
Tue 10:57:00 PM 58.0955 -44.1893 90° East  Level FlightAware Approximate
Tue 10:58:00 PM 58.0936 -43.9252 91° East  Level FlightAware Approximate
Tue 10:59:00 PM 58.0911 -43.6611 91° East  Level FlightAware Approximate
Tue 11:00:00 PM 58.0880 -43.3971 91° East  Level FlightAware Approximate
Tue 11:01:00 PM 58.0844 -43.1331 91° East  Level FlightAware Approximate
Tue 11:02:00 PM 58.0803 -42.8692 92° East  Level FlightAware Approximate
Tue 11:03:00 PM 58.0756 -42.6053 92° East  Level FlightAware Approximate
Tue 11:04:00 PM 58.0704 -42.3415 92° East  Level FlightAware Approximate
Tue 11:05:00 PM 58.0646 -42.0779 92° East  Level FlightAware Approximate
Tue 11:06:00 PM 58.0583 -41.8142 92° East  Level FlightAware Approximate
Tue 11:07:00 PM 58.0515 -41.5507 93° East  Level FlightAware Approximate
Tue 11:08:00 PM 58.0441 -41.2873 93° East  Level FlightAware Approximate
Tue 11:09:00 PM 58.0361 -41.0240 93° East  Level FlightAware Approximate
Tue 11:10:00 PM 58.0276 -40.7609 93° East  Level FlightAware Approximate
Tue 11:11:00 PM 58.0186 -40.4978 94° East  Level FlightAware Approximate
Tue 11:12:00 PM 58.0090 -40.2349 94° East  Level FlightAware Approximate
Tue 11:13:00 PM 58.0010 -39.9721 86° East  Level FlightAware Approximate
Tue 11:14:00 PM 58.0097 -39.7092 86° East  Level FlightAware Approximate
Tue 11:15:00 PM 58.0179 -39.4461 87° East  Level FlightAware Approximate
Tue 11:16:00 PM 58.0256 -39.1829 87° East  Level FlightAware Approximate
Tue 11:17:00 PM 58.0327 -38.9196 87° East  Level FlightAware Approximate
Tue 11:18:00 PM 58.0393 -38.6562 87° East  Level FlightAware Approximate
Tue 11:19:00 PM 58.0453 -38.3927 87° East  Level FlightAware Approximate
Tue 11:20:00 PM 58.0508 -38.1292 88° East  Level FlightAware Approximate
Tue 11:21:00 PM 58.0558 -37.8655 88° East  Level FlightAware Approximate
Tue 11:22:00 PM 58.0602 -37.6018 88° East  Level FlightAware Approximate
Tue 11:23:00 PM 58.0640 -37.3380 88° East  Level FlightAware Approximate
Tue 11:24:00 PM 58.0677 -37.0742 88° East  Level FlightAware Approximate
Tue 11:25:00 PM 58.0723 -36.8104 88° East  Level FlightAware Approximate
Tue 11:26:00 PM 58.0762 -36.5465 88° East  Level FlightAware Approximate
Tue 11:27:00 PM 58.0797 -36.2826 88° East  Level FlightAware Approximate
Tue 11:28:00 PM 58.0826 -36.0186 89° East  Level FlightAware Approximate
Tue 11:29:00 PM 58.0849 -35.7546 89° East  Level FlightAware Approximate
Tue 11:30:00 PM 58.0867 -35.4906 89° East  Level FlightAware Approximate
Tue 11:31:00 PM 58.0879 -35.2265 89° East  Level FlightAware Approximate
Tue 11:32:00 PM 58.0886 -34.9625 90° East  Level FlightAware Approximate
Tue 11:33:00 PM 58.0888 -34.6984 90° East  Level FlightAware Approximate
Tue 11:34:00 PM 58.0884 -34.4343 90° East  Level FlightAware Approximate
Tue 11:35:00 PM 58.0874 -34.1702 90° East  Level FlightAware Approximate
Tue 11:36:00 PM 58.0859 -33.9062 90° East  Level FlightAware Approximate
Tue 11:37:00 PM 58.0839 -33.6422 91° East  Level FlightAware Approximate
Tue 11:38:00 PM 58.0813 -33.3782 91° East  Level FlightAware Approximate
Tue 11:39:00 PM 58.0782 -33.1142 91° East  Level FlightAware Approximate
Tue 11:40:00 PM 58.0746 -32.8503 91° East  Level FlightAware Approximate
Tue 11:41:00 PM 58.0703 -32.5865 92° East  Level FlightAware Approximate
Tue 11:42:00 PM 58.0656 -32.3227 92° East  Level FlightAware Approximate
Tue 11:43:00 PM 58.0603 -32.0590 92° East  Level FlightAware Approximate
Tue 11:44:00 PM 58.0544 -31.7954 92° East  Level FlightAware Approximate
Tue 11:45:00 PM 58.0480 -31.5319 93° East  Level FlightAware Approximate
Tue 11:46:00 PM 58.0411 -31.2684 93° East  Level FlightAware Approximate
Tue 11:47:00 PM 58.0336 -31.0051 93° East  Level FlightAware Approximate
Tue 11:48:00 PM 58.0256 -30.7419 93° East  Level FlightAware Approximate
Tue 11:49:00 PM 58.0170 -30.4788 93° East  Level FlightAware Approximate
Tue 11:50:00 PM 58.0079 -30.2159 94° East  Level FlightAware Approximate
Tue 11:51:00 PM 58.0018 -29.9531 86° East  Level FlightAware Approximate
Tue 11:52:00 PM 58.0118 -29.6903 86° East  Level FlightAware Approximate
Tue 11:53:00 PM 58.0212 -29.4273 86° East  Level FlightAware Approximate
Tue 11:54:00 PM 58.0301 -29.1643 86° East  Level FlightAware Approximate
Tue 11:55:00 PM 58.0384 -28.9011 86° East  Level FlightAware Approximate
Tue 11:56:00 PM 58.0462 -28.6377 87° East  Level FlightAware Approximate
Tue 11:57:00 PM 58.0535 -28.3743 87° East  Level FlightAware Approximate
Tue 11:58:00 PM 58.0602 -28.1107 87° East  Level FlightAware Approximate
Tue 11:59:00 PM 58.0663 -27.8471 87° East  Level FlightAware Approximate
Wed 12:00:00 AM 58.0719 -27.5834 88° East  Level FlightAware Approximate
Wed 12:01:00 AM 58.0770 -27.3196 88° East  Level FlightAware Approximate
Wed 12:02:00 AM 58.0815 -27.0557 88° East  Level FlightAware Approximate
Wed 12:03:00 AM 58.0855 -26.7918 88° East  Level FlightAware Approximate
Wed 12:04:00 AM 58.0889 -26.5278 88° East  Level FlightAware Approximate
Wed 12:05:00 AM 58.0918 -26.2638 89° East  Level FlightAware Approximate
Wed 12:06:00 AM 58.0942 -25.9997 89° East  Level FlightAware Approximate
Wed 12:07:00 AM 58.0960 -25.7356 89° East  Level FlightAware Approximate
Wed 12:08:00 AM 58.0972 -25.4715 89° East  Level FlightAware Approximate
Wed 12:09:00 AM 58.0979 -25.2073 90° East  Level FlightAware Approximate
Wed 12:10:00 AM 58.0981 -24.9432 90° East  Level FlightAware Approximate
Wed 12:11:00 AM 58.0977 -24.6790 90° East  Level FlightAware Approximate
Wed 12:12:00 AM 58.0967 -24.4149 90° East  Level FlightAware Approximate
Wed 12:13:00 AM 58.0953 -24.1508 90° East  Level FlightAware Approximate
Wed 12:14:00 AM 58.0932 -23.8867 91° East  Level FlightAware Approximate
Wed 12:15:00 AM 58.0906 -23.6226 91° East  Level FlightAware Approximate
Wed 12:16:00 AM 58.0875 -23.3586 91° East  Level FlightAware Approximate
Wed 12:17:00 AM 58.0839 -23.0946 91° East  Level FlightAware Approximate
Wed 12:18:00 AM 58.0797 -22.8307 92° East  Level FlightAware Approximate
Wed 12:19:00 AM 58.0749 -22.5669 92° East  Level FlightAware Approximate
Wed 12:20:00 AM 58.0696 -22.3031 92° East  Level FlightAware Approximate
Wed 12:21:00 AM 58.0637 -22.0394 92° East  Level FlightAware Approximate
Wed 12:22:00 AM 58.0574 -21.7758 93° East  Level FlightAware Approximate
Wed 12:23:00 AM 58.0504 -21.5123 93° East  Level FlightAware Approximate
Wed 12:24:00 AM 58.0429 -21.2489 93° East  Level FlightAware Approximate
Wed 12:25:00 AM 58.0349 -20.9857 93° East  Level FlightAware Approximate
Wed 12:26:00 AM 58.0263 -20.7225 93° East  Level FlightAware Approximate
Wed 12:27:00 AM 58.0172 -20.4595 94° East  Level FlightAware Approximate
Wed 12:28:00 AM 58.0076 -20.1966 94° East  Level FlightAware Approximate
Wed 12:29:00 AM 57.9931 -19.9350 101° East  Level FlightAware Approximate
Wed 12:30:00 AM 57.9655 -19.6769 101° East  Level FlightAware Approximate
Wed 12:31:00 AM 57.9374 -19.4193 102° East  Level FlightAware Approximate
Wed 12:32:00 AM 57.9087 -19.1620 102° East  Level FlightAware Approximate
Wed 12:33:00 AM 57.8795 -18.9052 102° East  Level FlightAware Approximate
Wed 12:34:00 AM 57.8498 -18.6487 102° East  Level FlightAware Approximate
Wed 12:35:00 AM 57.8196 -18.3927 102° East  Level FlightAware Approximate
Wed 12:36:00 AM 57.7888 -18.1372 103° East  Level FlightAware Approximate
Wed 12:37:00 AM 57.7576 -17.8821 103° East  Level FlightAware Approximate
Wed 12:38:00 AM 57.7258 -17.6274 103° East  Level FlightAware Approximate
Wed 12:39:00 AM 57.6935 -17.3731 103° East  Level FlightAware Approximate
Wed 12:40:00 AM 57.6608 -17.1194 103° East  Level FlightAware Approximate
Wed 12:41:00 AM 57.6275 -16.8661 104° East  Level FlightAware Approximate
Wed 12:42:00 AM 57.5937 -16.6132 104° East  Level FlightAware Approximate
Wed 12:43:00 AM 57.5594 -16.3609 104° East  Level FlightAware Approximate
Wed 12:44:00 AM 57.5246 -16.1090 104° East  Level FlightAware Approximate
Wed 12:45:00 AM 57.4893 -15.8576 105° East  Level FlightAware Approximate
Wed 12:46:00 AM 57.4535 -15.6066 105° East  Level FlightAware Approximate
Wed 12:47:00 AM 57.4172 -15.3562 105° East  Level FlightAware Approximate
Wed 12:48:00 AM 57.3804 -15.1063 105° East  Level FlightAware Approximate
Wed 12:49:00 AM 57.3431 -14.8569 105° East  Level FlightAware Approximate
Wed 12:50:00 AM 57.3053 -14.6080 106° East  Level FlightAware Approximate
Wed 12:51:00 AM 57.2670 -14.3596 106° East  Level FlightAware Approximate
Wed 12:52:00 AM 57.2283 -14.1117 106° East  Level FlightAware Approximate
Wed 12:53:00 AM 57.1890 -13.8643 106° East  Level FlightAware Approximate
Wed 12:53:12 AM 58.0310 -11.4220 106° East 562 647 33,000  Level FlightAware ADS-B
Wed 12:53:47 AM 58.0270 -11.2590 93° East 561 646 33,000  Level FlightAware ADS-B
Wed 12:54:37 AM 58.0190 -11.0080 93° East 559 643 33,000  Level FlightAware ADS-B
Wed 12:55:17 AM 58.0130 -10.8140 93° East 557 641 33,000  Level FlightAware ADS-B
Wed 12:56:02 AM 58.0050 -10.5980 94° East 556 640 33,000  Level FlightAware ADS-B
Wed 12:56:42 AM 57.9990 -10.4030 93° East 556 640 33,000  Level FlightAware ADS-B
Wed 12:57:22 AM 57.9910 -10.2070 94° East 556 640 33,000  Level FlightAware ADS-B
Wed 12:58:07 AM 57.9760 -9.9950 98° East 543 625 33,000  Level FlightAware ADS-B
Wed 12:58:47 AM 57.9440 -9.8200 109° East 508 585 33,000  Level FlightAware ADS-B
Wed 12:59:32 AM 57.9040 -9.6350 112° Southeast 500 575 33,000  Level FlightAware ADS-B
Wed 01:00:12 AM 57.8700 -9.4790 112° Southeast 500 575 33,000 600 Level FlightAware ADS-B
Wed 01:00:52 AM 57.8340 -9.3130 112° Southeast 509 586 33,800 1,129 Climbing FlightAware ADS-B
Wed 01:01:37 AM 57.7930 -9.1260 112° Southeast 521 600 34,600 225 Climbing FlightAware ADS-B
Wed 01:02:12 AM 57.7567 -8.9663 112° Southeast 456 525 34,100 1,650 Descending FlightAware UK
Wed 01:02:17 AM 57.7550 -8.9560 112° Southeast 516 594 35,700 1,000 Climbing FlightAware ADS-B
Wed 01:02:36 AM 57.7354 -8.8652 112° Southeast 458 527 34,500 -1,459 Descending FlightAware UK
Wed 01:02:54 AM 57.7186 -8.7904 113° Southeast 458 527 34,800 4,385 Climbing FlightAware UK
Wed 01:03:02 AM 57.7130 -8.7670 113° Southeast 525 604 36,400 1,000 Climbing FlightAware ADS-B
Wed 01:03:18 AM 57.6960 -8.6899 113° Southeast 462 532 35,200 -1,765 Descending FlightAware UK
Wed 01:03:36 AM 57.6791 -8.6146 113° Southeast 462 532 35,400 333 Climbing FlightAware UK
Wed 01:03:54 AM 57.6623 -8.5385 112° Southeast 458 527 35,400  Level FlightAware UK
Wed 01:04:12 AM 57.6451 -8.4627 113° Southeast 458 527 35,400  Level FlightAware UK
Wed 01:04:30 AM 57.6282 -8.3889 113° Southeast 458 527 35,400 3,840 Level FlightAware UK
Wed 01:04:37 AM 57.6280 -8.3870 113° Southeast 514 592 37,000  Climbing FlightAware ADS-B
Wed 01:04:54 AM 57.6059 -8.2910 113° Southeast 454 522 35,400 -2,743 Descending FlightAware UK
Wed 01:05:12 AM 57.5892 -8.2186 113° Southeast 454 522 35,400 3,429 Level FlightAware UK
Wed 01:05:22 AM 57.5850 -8.2020 113° Southeast 509 586 37,000  Climbing FlightAware ADS-B
Wed 01:05:42 AM 57.5610 -8.0969 113° Southeast 454 522 35,400 -2,526 Descending FlightAware UK
Wed 01:06:00 AM 57.5440 -8.0242 113° Southeast 454 522 35,400 4,800 Level FlightAware UK
Wed 01:06:02 AM 57.5480 -8.0420 113° Southeast 508 585 37,000  Climbing FlightAware ADS-B
Wed 01:06:18 AM 57.5273 -7.9515 113° Southeast 452 520 35,400 -2,824 Descending FlightAware UK
Wed 01:06:36 AM 57.5105 -7.8794 113° Southeast 450 518 35,400 4,000 Level FlightAware UK
Wed 01:06:42 AM 57.5100 -7.8780 113° Southeast 508 585 37,000  Climbing FlightAware ADS-B
Wed 01:07:00 AM 57.4879 -7.7834 113° Southeast 450 518 35,400 -2,667 Descending FlightAware UK
Wed 01:07:18 AM 57.4711 -7.7115 114° Southeast 448 516 35,400 3,556 Level FlightAware UK
Wed 01:07:27 AM 57.4670 -7.6950 114° Southeast 508 585 37,000  Climbing FlightAware ADS-B
Wed 01:07:42 AM 57.4485 -7.6157 114° Southeast 448 516 35,400 -2,909 Descending FlightAware UK
Wed 01:08:00 AM 57.4315 -7.5436 114° Southeast 446 513 35,400 3,840 Level FlightAware UK
Wed 01:08:07 AM 57.4290 -7.5330 114° Southeast 512 589 37,000  Climbing FlightAware ADS-B
Wed 01:08:24 AM 57.4085 -7.4475 114° Southeast 446 513 35,400 -2,743 Descending FlightAware UK
Wed 01:08:42 AM 57.3912 -7.3750 114° Southeast 446 513 35,400 3,429 Level FlightAware UK
Wed 01:08:52 AM 57.3860 -7.3530 114° Southeast 515 593 37,000  Climbing FlightAware ADS-B
Wed 01:09:12 AM 57.3621 -7.2538 114° Southeast 448 516 35,400 -2,526 Descending FlightAware UK
Wed 01:09:30 AM 57.3446 -7.1808 114° Southeast 450 518 35,400 4,800 Level FlightAware UK
Wed 01:09:32 AM 57.3470 -7.1890 114° Southeast 518 596 37,000 333 Climbing FlightAware ADS-B
Wed 01:09:48 AM 57.3271 -7.1079 114° Southeast 450 518 35,500 -2,824 Descending FlightAware UK
Wed 01:10:06 AM 57.3093 -7.0341 114° Southeast 450 518 35,400 3,750 Descending FlightAware UK
Wed 01:10:12 AM 57.3080 -7.0310 114° Southeast 521 600 37,000  Climbing FlightAware ADS-B
Wed 01:10:30 AM 57.2856 -6.9368 114° Southeast 452 520 35,400 -2,667 Descending FlightAware UK
Wed 01:10:48 AM 57.2677 -6.8636 114° Southeast 456 525 35,400 3,556 Level FlightAware UK
Wed 01:10:57 AM 57.2640 -6.8490 114° Southeast 521 600 37,000  Climbing FlightAware ADS-B
Wed 01:11:12 AM 57.2437 -6.7658 114° Southeast 456 525 35,400 -2,909 Descending FlightAware UK
Wed 01:11:30 AM 57.2256 -6.6924 114° Southeast 456 525 35,400 3,840 Level FlightAware UK
Wed 01:11:37 AM 57.2230 -6.6830 114° Southeast 523 602 37,000  Climbing FlightAware ADS-B
Wed 01:11:54 AM 57.2014 -6.5941 114° Southeast 460 529 35,400 -2,743 Descending FlightAware UK
Wed 01:12:12 AM 57.1832 -6.5206 115° Southeast 460 529 35,400 3,429 Level FlightAware UK
Wed 01:12:22 AM 57.1770 -6.4970 115° Southeast 525 604 37,000  Climbing FlightAware ADS-B
Wed 01:12:42 AM 57.1526 -6.3982 115° Southeast 464 534 35,400 -2,526 Descending FlightAware UK
Wed 01:13:00 AM 57.1340 -6.3240 115° Southeast 462 532 35,400 4,800 Level FlightAware UK
Wed 01:13:02 AM 57.1360 -6.3300 115° Southeast 527 606 37,000  Climbing FlightAware ADS-B
Wed 01:13:18 AM 57.1159 -6.2512 115° Southeast 462 532 35,400 -2,824 Descending FlightAware UK
Wed 01:13:36 AM 57.0972 -6.1770 115° Southeast 460 529 35,400 4,000 Level FlightAware UK
Wed 01:13:42 AM 57.0940 -6.1630 115° Southeast 530 610 37,000  Climbing FlightAware ADS-B
Wed 01:14:00 AM 57.0724 -6.0792 115° Southeast 462 532 35,400 -2,667 Descending FlightAware UK
Wed 01:14:18 AM 57.0537 -6.0058 115° Southeast 462 532 35,400  Level FlightAware UK
Wed 01:14:36 AM 57.0351 -5.9325 115° Southeast 462 532 35,400  Level FlightAware UK
Wed 01:14:54 AM 57.0163 -5.8592 115° Southeast 464 534 35,400  Level FlightAware UK
Wed 01:15:12 AM 56.9975 -5.7861 115° Southeast 462 532 35,400  Level FlightAware UK
Wed 01:15:31 AM 56.9786 -5.7121 115° Southeast 462 532 35,400 3,840 Level FlightAware UK
Wed 01:15:37 AM 56.9780 -5.7100 115° Southeast 530 610 37,000  Climbing FlightAware ADS-B
Wed 01:15:54 AM 56.9537 -5.6156 115° Southeast 460 529 35,400 -2,667 Descending FlightAware UK
Wed 01:16:13 AM 56.9347 -5.5420 115° Southeast 458 527 35,400 4,174 Level FlightAware UK
Wed 01:16:17 AM 56.9350 -5.5430 115° Southeast 530 610 37,000  Climbing FlightAware ADS-B
Wed 01:16:36 AM 56.9095 -5.4459 115° Southeast 458 527 35,400 -2,526 Descending FlightAware UK
Wed 01:16:55 AM 56.8904 -5.3726 115° Southeast 458 527 35,400 3,692 Level FlightAware UK
Wed 01:17:02 AM 56.8870 -5.3590 115° Southeast 529 609 37,000  Climbing FlightAware ADS-B
Wed 01:17:19 AM 56.8651 -5.2762 115° Southeast 458 527 35,400 -2,743 Descending FlightAware UK
Wed 01:17:37 AM 56.8460 -5.2040 116° Southeast 456 525 35,400 4,174 Level FlightAware UK
Wed 01:17:42 AM 56.8450 -5.1990 116° Southeast 527 606 37,000  Climbing FlightAware ADS-B
Wed 01:18:01 AM 56.8208 -5.1080 116° Southeast 456 525 35,400 -2,595 Descending FlightAware UK
Wed 01:18:19 AM 56.8017 -5.0363 116° Southeast 454 522 35,400 4,571 Level FlightAware UK
Wed 01:18:22 AM 56.8010 -5.0360 116° Southeast 525 604 37,000  Climbing FlightAware ADS-B
Wed 01:18:37 AM 56.7827 -4.9647 116° Southeast 452 520 35,400 -2,909 Descending FlightAware UK
Wed 01:18:55 AM 56.7637 -4.8935 116° Southeast 452 520 35,400 3,200 Level FlightAware UK
Wed 01:19:07 AM 56.7540 -4.8560 116° Southeast 524 603 37,000  Climbing FlightAware ADS-B
Wed 01:19:25 AM 56.7320 -4.7750 116° Southeast 452 520 35,400 -2,667 Descending FlightAware UK
Wed 01:19:43 AM 56.7128 -4.7041 116° Southeast 450 518 35,400 4,364 Level FlightAware UK
Wed 01:19:47 AM 56.7110 -4.6990 116° Southeast 519 597 37,000  Climbing FlightAware ADS-B
Wed 01:20:07 AM 56.6874 -4.6097 116° Southeast 448 516 35,400 -2,526 Descending FlightAware UK
Wed 01:20:25 AM 56.6683 -4.5392 116° Southeast 446 513 35,400 4,800 Level FlightAware UK
Wed 01:20:27 AM 56.6680 -4.5400 116° Southeast 521 600 37,000  Climbing FlightAware ADS-B
Wed 01:20:43 AM 56.6492 -4.4688 116° Southeast 444 511 35,400 -2,824 Descending FlightAware UK
Wed 01:21:01 AM 56.6300 -4.3984 116° Southeast 442 509 35,400 3,310 Level FlightAware UK
Wed 01:21:12 AM 56.6200 -4.3610 116° Southeast 517 595 37,000  Climbing FlightAware ADS-B
Wed 01:21:31 AM 56.5980 -4.2814 116° Southeast 444 511 35,400 -2,595 Descending FlightAware UK
Wed 01:21:49 AM 56.5787 -4.2114 117° Southeast 444 511 35,400 4,571 Level FlightAware UK
Wed 01:21:52 AM 56.5780 -4.2090 117° Southeast 517 595 37,000  Climbing FlightAware ADS-B
Wed 01:22:07 AM 56.5593 -4.1414 117° Southeast 444 511 35,400 -2,909 Descending FlightAware UK
Wed 01:22:25 AM 56.5399 -4.0714 117° Southeast 444 511 35,400 3,200 Level FlightAware UK
Wed 01:22:37 AM 56.5290 -4.0320 117° Southeast 517 595 37,000  Climbing FlightAware ADS-B
Wed 01:22:55 AM 56.5074 -3.9550 117° Southeast 442 509 35,400 -2,667 Descending FlightAware UK
Wed 01:23:13 AM 56.4877 -3.8842 117° Southeast 442 509 35,400  Level FlightAware UK
Wed 01:23:31 AM 56.4682 -3.8143 117° Southeast 442 509 35,400  Level FlightAware UK
Wed 01:23:49 AM 56.4486 -3.7444 117° Southeast 442 509 35,400 3,692 Level FlightAware UK
Wed 01:23:57 AM 56.4460 -3.7340 117° Southeast 519 597 37,000  Climbing FlightAware ADS-B
Wed 01:24:13 AM 56.4224 -3.6513 117° Southeast 442 509 35,400 -2,824 Descending FlightAware UK
Wed 01:24:31 AM 56.4027 -3.5813 117° Southeast 444 511 35,400 3,310 Level FlightAware UK
Wed 01:24:42 AM 56.3950 -3.5560 117° Southeast 520 598 37,000  Climbing FlightAware ADS-B
Wed 01:25:01 AM 56.3697 -3.4648 117° Southeast 446 513 35,400 -2,595 Descending FlightAware UK
Wed 01:25:19 AM 56.3496 -3.3939 117° Southeast 446 513 35,400 4,571 Level FlightAware UK
Wed 01:25:22 AM 56.3510 -3.3970 117° Southeast 529 609 37,000  Climbing FlightAware ADS-B
Wed 01:25:37 AM 56.3318 -3.3210 117° Southeast 448 516 35,400 -2,909 Descending FlightAware UK
Wed 01:25:55 AM 56.3138 -3.2492 114° Southeast 450 518 35,400 3,840 Level FlightAware UK
Wed 01:26:02 AM 56.3100 -3.2340 114° Southeast 528 608 37,000  Climbing FlightAware ADS-B
Wed 01:26:19 AM 56.2896 -3.1526 114° Southeast 450 518 35,400 -2,743 Descending FlightAware UK
Wed 01:26:37 AM 56.2712 -3.0802 114° Southeast 452 520 35,400 3,429 Level FlightAware UK
Wed 01:26:47 AM 56.2640 -3.0510 114° Southeast 531 611 37,000 200 Climbing FlightAware ADS-B
Wed 01:27:07 AM 56.2403 -2.9587 114° Southeast 452 520 35,500 -2,526 Descending FlightAware UK
Wed 01:27:25 AM 56.2216 -2.8864 115° Southeast 452 520 35,400 4,500 Descending FlightAware UK
Wed 01:27:27 AM 56.2220 -2.8900 115° Southeast 535 616 37,000  Climbing FlightAware ADS-B
Wed 01:27:43 AM 56.2027 -2.8142 115° Southeast 452 520 35,400 -2,400 Descending FlightAware UK
Wed 01:28:07 AM 56.1775 -2.7177 115° Southeast 454 522 35,400 3,310 Level FlightAware UK
Wed 01:28:12 AM 56.1760 -2.7140 115° Southeast 535 616 37,000  Climbing FlightAware ADS-B
Wed 01:28:31 AM 56.1519 -2.6207 115° Southeast 454 522 35,400 -2,595 Descending FlightAware UK
Wed 01:28:49 AM 56.1327 -2.5486 115° Southeast 454 522 35,400 4,571 Level FlightAware UK
Wed 01:28:52 AM 56.1330 -2.5500 115° Southeast 533 613 37,000  Climbing FlightAware ADS-B
Wed 01:29:07 AM 56.1135 -2.4765 115° Southeast 454 522 35,400 -2,909 Descending FlightAware UK
Wed 01:29:25 AM 56.0944 -2.4043 115° Southeast 454 522 35,400 3,200 Level FlightAware UK
Wed 01:29:37 AM 56.0840 -2.3660 115° Southeast 537 618 37,000  Climbing FlightAware ADS-B
Wed 01:29:55 AM 56.0621 -2.2837 115° Southeast 454 522 35,400  Descending FlightAware UK
Wed 01:30:17 AM 56.0410 -2.2060 115° Southeast 537 618 37,000  Climbing FlightAware ADS-B
Wed 01:30:37 AM 56.0170 -2.1162 115° Southeast 454 522 35,400  Descending FlightAware UK
Wed 01:30:52 AM 56.0040 -2.0680 116° Southeast 537 618 37,000  Climbing FlightAware ADS-B
Wed 01:30:55 AM 55.9978 -2.0454 116° Southeast 454 522 35,400 -6,400 Descending FlightAware UK
Wed 01:31:07 AM 55.9847 -1.9968 116° Southeast 456 525 35,400  Level FlightAware UK
Wed 01:31:25 AM 55.9654 -1.9254 116° Southeast 454 522 35,400 2,743 Level FlightAware UK
Wed 01:31:42 AM 55.9500 -1.8700 116° Southeast 534 615 37,000  Climbing FlightAware ADS-B
Wed 01:32:02 AM 55.9266 -1.7821 116° Southeast 462 532 35,400 -2,595 Descending FlightAware UK
Wed 01:32:19 AM 55.9089 -1.7107 114° Southeast 458 527 35,400 4,800 Level FlightAware UK
Wed 01:32:22 AM 55.9100 -1.7130 114° Southeast 536 617 37,000  Climbing FlightAware ADS-B
Wed 01:32:38 AM 55.8918 -1.6363 114° Southeast 458 527 35,400  Descending FlightAware UK
Wed 01:33:07 AM 55.8720 -1.5440 114° Southeast 536 617 37,000  Climbing FlightAware ADS-B
Wed 01:33:26 AM 55.8486 -1.4384 114° Southeast 452 520 35,400  Descending FlightAware UK
Wed 01:33:42 AM 55.8380 -1.3900 111° Southeast 532 612 37,000  Climbing FlightAware ADS-B
Wed 01:33:44 AM 55.8327 -1.3649 111° Southeast 450 518 35,400  Descending FlightAware UK
Wed 01:34:02 AM 55.8130 -1.3090 119° Southeast 509 586 37,000  Climbing FlightAware ADS-B
Wed 01:34:20 AM 55.7820 -1.2452 119° Southeast 442 509 35,400 -2,667 Descending FlightAware UK
Wed 01:34:38 AM 55.7546 -1.1892 131° Southeast 440 506 35,400 3,556 Level FlightAware UK
Wed 01:34:47 AM 55.7430 -1.1640 131° Southeast 504 580 37,000 250 Climbing FlightAware ADS-B
Wed 01:35:02 AM 55.7191 -1.1127 131° Southeast 438 504 35,500 -2,727 Descending FlightAware UK
Wed 01:35:20 AM 55.6927 -1.0545 129° Southeast 442 509 35,500 3,600 Level FlightAware UK
Wed 01:35:27 AM 55.6850 -1.0360 129° Southeast 509 586 37,000  Climbing FlightAware ADS-B
Wed 01:35:44 AM 55.6580 -0.9760 129° Southeast 442 509 35,500 -2,571 Descending FlightAware UK
Wed 01:36:02 AM 55.6318 -0.9161 128° Southeast 446 513 35,500 3,214 Level FlightAware UK
Wed 01:36:12 AM 55.6210 -0.8910 128° Southeast 511 588 37,000 -200 Climbing FlightAware ADS-B
Wed 01:36:32 AM 55.5891 -0.8177 128° Southeast 448 516 35,400  Descending FlightAware UK
Wed 01:36:52 AM 55.5620 -0.7550 128° Southeast 510 587 37,000  Climbing FlightAware ADS-B
Wed 01:37:08 AM 55.5373 -0.6981 128° Southeast 440 506 35,400  Descending FlightAware UK
Wed 01:37:32 AM 55.5120 -0.6390 128° Southeast 510 587 37,000  Climbing FlightAware ADS-B
Wed 01:37:50 AM 55.4770 -0.5591 128° Southeast 438 504 35,400 -2,500 Descending FlightAware UK
Wed 01:38:08 AM 55.4511 -0.5000 128° Southeast 438 504 35,500 3,556 Climbing FlightAware UK
Wed 01:38:17 AM 55.4400 -0.4760 128° Southeast 510 587 37,000  Climbing FlightAware ADS-B
Wed 01:38:32 AM 55.4155 -0.4228 128° Southeast 440 506 35,500  Descending FlightAware UK
Wed 01:38:57 AM 55.3800 -0.3480 128° Southeast 514 592 37,000 -143 Climbing FlightAware ADS-B
Wed 01:39:14 AM 55.3518 -0.2886 128° Southeast 444 511 35,400  Descending FlightAware UK
Wed 01:39:37 AM 55.3230 -0.2270 128° Southeast 517 595 37,000  Climbing FlightAware ADS-B
Wed 01:40:14 AM 55.2602 -0.0943 128° Southeast 454 522 35,400  Descending FlightAware UK
Wed 01:40:22 AM 55.2520 -0.0780 128° Southeast 522 601 37,000  Climbing FlightAware ADS-B
Wed 01:40:38 AM 55.2233 -0.0161 128° Southeast 454 522 35,400 -2,743 Descending FlightAware UK
Wed 01:40:57 AM 55.1954 0.0432 130° Southeast 454 522 35,400 4,000 Level FlightAware UK
Wed 01:41:02 AM 55.1920 0.0510 130° Southeast 522 601 37,000  Climbing FlightAware ADS-B
Wed 01:41:27 AM 55.1492 0.1407 130° Southeast 458 527 35,400  Descending FlightAware UK
Wed 01:41:47 AM 55.1210 0.2000 130° Southeast 524 603 37,000 1,600 Climbing FlightAware ADS-B
Wed 01:42:27 AM 55.0600 0.3270 130° Southeast 526 605 37,000 -1,263 Level FlightAware ADS-B
Wed 01:43:03 AM 55.0000 0.4525 130° Southeast 462 532 35,400  Descending FlightAware UK
Wed 01:43:12 AM 54.9910 0.4720 130° Southeast 525 604 37,000  Climbing FlightAware ADS-B
Wed 01:43:27 AM 54.9631 0.5297 130° Southeast 458 527 35,400  Descending FlightAware UK
Wed 01:43:47 AM 54.9350 0.5880 130° Southeast 523 602 37,000  Climbing FlightAware ADS-B
Wed 01:44:03 AM 54.9068 0.6460 130° Southeast 458 527 35,400 -2,824 Descending FlightAware UK
Wed 01:44:21 AM 54.8788 0.7034 130° Southeast 456 525 35,400 3,310 Level FlightAware UK
Wed 01:44:32 AM 54.8660 0.7300 130° Southeast 520 598 37,000  Climbing FlightAware ADS-B
Wed 01:44:57 AM 54.8229 0.8175 130° Southeast 454 522 35,400 -1,959 Descending FlightAware UK
Wed 01:45:21 AM 54.7855 0.8938 130° Southeast 454 522 35,400 2,743 Level FlightAware UK
Wed 01:45:32 AM 54.7780 0.9100 130° Southeast 517 595 37,000  Climbing FlightAware ADS-B
Wed 01:45:51 AM 54.7412 0.9909 130° Southeast 450 518 35,400  Descending FlightAware UK
Wed 01:46:12 AM 54.7140 1.0540 130° Southeast 516 594 37,000  Climbing FlightAware ADS-B
Wed 01:46:27 AM 54.6897 1.1082 130° Southeast 444 511 35,400 -2,909 Descending FlightAware UK
Wed 01:46:45 AM 54.6637 1.1670 127° Southeast 438 504 35,400 3,840 Level FlightAware UK
Wed 01:46:52 AM 54.6570 1.1820 127° Southeast 508 585 37,000  Climbing FlightAware ADS-B
Wed 01:47:09 AM 54.6291 1.2444 127° Southeast 436 502 35,400 -2,743 Descending FlightAware UK
Wed 01:47:27 AM 54.6033 1.3019 128° Southeast 438 504 35,400 3,429 Level FlightAware UK
Wed 01:47:37 AM 54.5920 1.3250 128° Southeast 506 582 37,000  Climbing FlightAware ADS-B
Wed 01:47:57 AM 54.5598 1.3975 128° Southeast 436 502 35,400  Descending FlightAware UK
Wed 01:48:17 AM 54.5360 1.4480 128° Southeast 504 580 37,000  Climbing FlightAware ADS-B
Wed 01:48:33 AM 54.5080 1.5109 128° Southeast 434 499 35,400  Descending FlightAware UK
Wed 01:48:57 AM 54.4780 1.5750 128° Southeast 505 581 37,000  Climbing FlightAware ADS-B
Wed 01:49:22 AM 54.4383 1.6615 128° Southeast 436 502 35,400  Descending FlightAware UK
Wed 01:49:37 AM 54.4240 1.6910 129° Southeast 499 574 37,000  Climbing FlightAware ADS-B
Wed 01:49:39 AM 54.4125 1.7172 129° Southeast 436 502 35,400 -4,571 Descending FlightAware UK
Wed 01:49:58 AM 54.3862 1.7740 129° Southeast 436 502 35,400  Level FlightAware UK
Wed 01:50:15 AM 54.3604 1.8295 129° Southeast 436 502 35,400 4,000 Level FlightAware UK
Wed 01:50:22 AM 54.3600 1.8290 129° Southeast 498 573 37,000  Climbing FlightAware ADS-B
Wed 01:50:40 AM 54.3255 1.9048 129° Southeast 436 502 35,400 -2,667 Descending FlightAware UK
Wed 01:50:58 AM 54.2995 1.9606 129° Southeast 434 499 35,400 3,556 Level FlightAware UK
Wed 01:51:07 AM 54.2950 1.9700 129° Southeast 497 572 37,000  Climbing FlightAware ADS-B
Wed 01:51:28 AM 54.2557 2.0539 129° Southeast 434 499 35,400  Descending FlightAware UK
Wed 01:51:47 AM 54.2370 2.0940 129° Southeast 495 570 37,000  Climbing FlightAware ADS-B
Wed 01:52:10 AM 54.1950 2.1830 129° Southeast 434 499 35,400  Descending FlightAware UK
Wed 01:52:27 AM 54.1770 2.2200 129° Southeast 497 572 37,000  Climbing FlightAware ADS-B
Wed 01:52:58 AM 54.1254 2.3307 129° Southeast 436 502 35,400  Descending FlightAware UK
Wed 01:53:12 AM 54.1130 2.3560 129° Southeast 497 572 37,000  Climbing FlightAware ADS-B
Wed 01:53:28 AM 54.0817 2.4228 129° Southeast 436 502 35,400 -2,824 Descending FlightAware UK
Wed 01:53:46 AM 54.0554 2.4779 129° Southeast 436 502 35,400 4,000 Level FlightAware UK
Wed 01:53:52 AM 54.0550 2.4770 129° Southeast 499 574 37,000  Climbing FlightAware ADS-B
Wed 01:54:10 AM 54.0202 2.5515 129° Southeast 438 504 35,400  Descending FlightAware UK
Wed 01:54:37 AM 53.9880 2.6190 129° Southeast 505 581 37,000  Climbing FlightAware ADS-B
Wed 01:54:52 AM 53.9578 2.6814 129° Southeast 438 504 35,400 -2,909 Descending FlightAware UK
Wed 01:55:10 AM 53.9316 2.7360 129° Southeast 438 504 35,400 3,840 Level FlightAware UK
Wed 01:55:17 AM 53.9290 2.7410 129° Southeast 504 580 37,000  Climbing FlightAware ADS-B
Wed 01:55:40 AM 53.8875 2.8279 129° Southeast 438 504 35,400  Descending FlightAware UK
Wed 01:56:02 AM 53.8620 2.8790 129° Southeast 505 581 37,000  Climbing FlightAware ADS-B
Wed 01:56:22 AM 53.8249 2.9567 129° Southeast 440 506 35,400  Descending FlightAware UK
Wed 01:56:42 AM 53.8050 2.9980 129° Southeast 504 580 37,000  Climbing FlightAware ADS-B
Wed 01:56:58 AM 53.7712 3.0666 129° Southeast 438 504 35,400 -2,824 Descending FlightAware UK
Wed 01:57:16 AM 53.7445 3.1212 130° Southeast 438 504 35,400 2,824 Level FlightAware UK
Wed 01:57:32 AM 53.7330 3.1450 130° Southeast 504 580 37,000  Climbing FlightAware ADS-B
Wed 01:58:10 AM 53.6645 3.2844 130° Southeast 442 509 35,400  Descending FlightAware UK
Wed 01:58:22 AM 53.6550 3.3040 130° Southeast 504 580 37,000  Climbing FlightAware ADS-B
Wed 01:58:52 AM 53.6019 3.4107 130° Southeast 442 509 35,400  Descending FlightAware UK
Wed 01:59:02 AM 53.5950 3.4240 130° Southeast 505 581 37,000  Climbing FlightAware ADS-B
Wed 01:59:17 AM 53.5659 3.4835 130° Southeast 444 511 35,400  Descending FlightAware UK
Wed 01:59:42 AM 53.5310 3.5530 130° Southeast 505 581 37,000  Climbing FlightAware ADS-B
Wed 02:00:17 AM 53.4762 3.6639 130° Southeast 444 511 35,400  Descending FlightAware UK
Wed 02:00:27 AM 53.4650 3.6860 130° Southeast 506 582 37,000  Climbing FlightAware ADS-B
Wed 02:00:47 AM 53.4308 3.7543 130° Southeast 444 511 35,400  Descending FlightAware UK
Wed 02:01:07 AM 53.4040 3.8070 130° Southeast 504 580 37,000 1,477 Climbing FlightAware ADS-B
Wed 02:01:52 AM 53.3370 3.9400 130° Southeast 503 579 37,000 -1,371 Level FlightAware ADS-B
Wed 02:02:17 AM 53.2956 4.0216 130° Southeast 440 506 35,400  Descending FlightAware UK
Wed 02:02:32 AM 53.2780 4.0560 130° Southeast 501 577 37,000  Climbing FlightAware ADS-B
Wed 02:02:59 AM 53.2323 4.1452 130° Southeast 438 504 35,400  Descending FlightAware UK
Wed 02:03:12 AM 53.2170 4.1760 130° Southeast 500 575 37,000  Climbing FlightAware ADS-B
Wed 02:03:47 AM 53.1600 4.2854 130° Southeast 436 502 35,400  Descending FlightAware UK
Wed 02:03:57 AM 53.1480 4.3110 130° Southeast 498 573 37,000 1,920 Climbing FlightAware ADS-B
Wed 02:04:37 AM 53.0900 4.4250 130° Southeast 497 572 37,000 -1,297 Level FlightAware ADS-B
Wed 02:05:11 AM 53.0354 4.5286 130° Southeast 436 502 35,400  Descending FlightAware UK
Wed 02:05:17 AM 53.0290 4.5410 130° Southeast 497 572 37,000  Climbing FlightAware ADS-B
Wed 02:05:47 AM 52.9820 4.6322 130° Southeast 434 499 35,400  Descending FlightAware UK
Wed 02:06:02 AM 52.9630 4.6680 130° Southeast 495 570 37,000  Climbing FlightAware ADS-B
Wed 02:06:23 AM 52.9279 4.7358 130° Southeast 436 502 35,400 -2,462 Descending FlightAware UK
Wed 02:06:41 AM 52.9009 4.7872 131° Southeast 436 502 35,400 5,053 Level FlightAware UK
Wed 02:06:42 AM 52.9040 4.7820 131° Southeast 495 570 37,000  Climbing FlightAware ADS-B
Wed 02:06:59 AM 52.8740 4.8386 131° Southeast 438 504 35,400  Descending FlightAware UK
Wed 02:07:27 AM 52.8380 4.9070 131° Southeast 495 570 37,000  Climbing FlightAware ADS-B
Wed 02:07:53 AM 52.7939 4.9929 131° Southeast 438 504 35,400  Descending FlightAware UK
Wed 02:08:07 AM 52.7770 5.0230 131° Southeast 494 568 37,000 1,778 Climbing FlightAware ADS-B
Wed 02:08:47 AM 52.7150 5.1390 131° Southeast 493 567 37,000  Level FlightAware ADS-B
Wed 02:09:32 AM 52.6490 5.2640 131° Southeast 493 567 37,000 -1,231 Level FlightAware ADS-B
Wed 02:10:05 AM 52.5948 5.3655 131° Southeast 434 499 35,400  Descending FlightAware UK
Wed 02:10:12 AM 52.5920 5.3720 131° Southeast 492 566 37,000 2,043 Climbing FlightAware ADS-B
Wed 02:10:52 AM 52.5310 5.4850 132° Southeast 492 566 37,000 -1,352 Level FlightAware ADS-B
Wed 02:11:23 AM 52.4781 5.5834 132° Southeast 436 502 35,400  Descending FlightAware UK
Wed 02:11:37 AM 52.4610 5.6140 132° Southeast 492 566 37,000  Climbing FlightAware ADS-B
Wed 02:11:53 AM 52.4328 5.6666 132° Southeast 434 499 35,400  Descending FlightAware UK
Wed 02:12:17 AM 52.4020 5.7230 132° Southeast 491 565 37,000  Climbing FlightAware ADS-B
Wed 02:12:35 AM 52.3682 5.7831 132° Southeast 434 499 35,400 -2,667 Descending FlightAware UK
Wed 02:12:53 AM 52.3408 5.8329 132° Southeast 434 499 35,400 3,556 Level FlightAware UK
Wed 02:13:02 AM 52.3370 5.8420 132° Southeast 490 564 37,000 1,959 Climbing FlightAware ADS-B
Wed 02:13:42 AM 52.2750 5.9560 132° Southeast 490 564 37,000  Level FlightAware ADS-B
Wed 02:14:27 AM 52.2040 6.0850 132° Southeast 491 565 37,000  Level FlightAware ADS-B
Wed 02:15:07 AM 52.1440 6.1940 132° Southeast 490 564 37,000  Level FlightAware ADS-B
Wed 02:15:47 AM 52.0860 6.2980 132° Southeast 490 564 37,000  Level FlightAware ADS-B
Wed 02:16:32 AM 52.0160 6.4240 132° Southeast 491 565 37,000  Level FlightAware ADS-B
Wed 02:17:12 AM 51.9540 6.5340 132° Southeast 490 564 37,000  Level FlightAware ADS-B
Wed 02:17:52 AM 51.8960 6.6360 133° Southeast 490 564 37,000  Level FlightAware ADS-B
Wed 02:18:37 AM 51.8130 6.7400 142° Southeast 485 558 37,000  Level FlightAware ADS-B
Wed 02:19:17 AM 51.7440 6.8240 143° Southeast 485 558 37,000  Level FlightAware ADS-B
Wed 02:20:02 AM 51.6590 6.9320 142° Southeast 485 558 37,000  Level FlightAware ADS-B
Wed 02:20:42 AM 51.5930 7.0180 141° Southeast 487 560 37,000  Level FlightAware ADS-B
Wed 02:21:22 AM 51.5220 7.1050 143° Southeast 485 558 37,000  Level FlightAware ADS-B
Wed 02:22:07 AM 51.4390 7.2040 143° Southeast 485 558 37,000  Level FlightAware ADS-B
Wed 02:22:47 AM 51.3670 7.2900 143° Southeast 486 559 37,000  Level FlightAware ADS-B
Wed 02:23:32 AM 51.2910 7.3810 143° Southeast 487 560 37,000  Level FlightAware ADS-B
Wed 02:24:12 AM 51.2190 7.4670 143° Southeast 489 563 37,000 -375 Level FlightAware ADS-B
Wed 02:24:52 AM 51.1400 7.5600 144° Southeast 485 558 36,500 -975 Descending FlightAware ADS-B
Wed 02:25:32 AM 51.0720 7.6400 144° Southeast 484 557 35,700 -1,059 Descending FlightAware ADS-B
Wed 02:26:17 AM 50.9910 7.7360 143° Southeast 483 556 35,000 -365 Descending FlightAware ADS-B
Wed 02:27:27 AM 50.8630 7.8840 144° Southeast 479 551 35,000  Level FlightAware ADS-B
Wed 02:28:37 AM 50.7370 8.0290 144° Southeast 480 552 35,000  Level FlightAware ADS-B
Wed 02:29:22 AM 50.6540 8.1260 143° Southeast 482 555 35,000  Level FlightAware ADS-B
Wed 02:30:02 AM 50.5820 8.2080 144° Southeast 484 557 35,000  Level FlightAware ADS-B
Wed 02:30:57 AM 50.4820 8.3220 144° Southeast 484 557 35,000  Level FlightAware ADS-B
Wed 02:32:07 AM 50.3510 8.4700 144° Southeast 483 556 35,000  Level FlightAware ADS-B
Wed 02:32:47 AM 50.2790 8.5510 144° Southeast 482 555 35,000  Level FlightAware ADS-B
Wed 02:33:32 AM 50.1970 8.6440 144° Southeast 479 551 35,000  Level FlightAware ADS-B
Wed 02:34:12 AM 50.1240 8.7250 145° Southeast 476 548 35,000  Level FlightAware ADS-B
Wed 02:34:52 AM 50.0530 8.8080 143° Southeast 480 552 35,000  Level FlightAware ADS-B
Wed 02:35:52 AM 49.9540 8.9450 138° Southeast 477 549 35,000  Level FlightAware ADS-B
Wed 02:37:02 AM 49.8440 9.1010 138° Southeast 474 545 35,000 -429 Level FlightAware ADS-B
Wed 02:38:12 AM 49.7290 9.2610 138° Southeast 475 547 34,000 -971 Descending FlightAware ADS-B
Wed 02:38:47 AM 49.6770 9.3340 138° Southeast 474 545 33,300 -1,200 Descending FlightAware ADS-B
Wed 02:40:02 AM 49.5620 9.5120 135° Southeast 465 535 31,800 -1,450 Descending FlightAware ADS-B
Wed 02:40:47 AM 49.4970 9.6270 131° Southeast 471 542 30,400 -1,906 Descending FlightAware ADS-B
Wed 02:41:27 AM 49.4400 9.7260 132° Southeast 466 536 29,100 -1,800 Descending FlightAware ADS-B
Wed 02:42:07 AM 49.3850 9.8220 131° Southeast 443 510 28,000 -1,725 Descending FlightAware ADS-B
Wed 02:42:47 AM 49.3420 9.8960 132° Southeast 442 509 26,800 -1,565 Descending FlightAware ADS-B
Wed 02:44:02 AM 49.2310 10.0880 131° Southeast 439 505 25,000 -831 Descending FlightAware ADS-B
Wed 02:44:57 AM 49.1780 10.1780 132° Southeast 427 491 25,000  Level FlightAware ADS-B
Wed 02:45:37 AM 49.1090 10.2940 132° Southeast 426 490 25,000  Level FlightAware ADS-B
Wed 02:46:17 AM 49.0660 10.3620 134° Southeast 423 487 25,000 -1,200 Level FlightAware ADS-B
Wed 02:47:02 AM 48.9920 10.4790 134° Southeast 421 484 23,300 -2,118 Descending FlightAware ADS-B
Wed 02:47:42 AM 48.9440 10.5570 133° Southeast 408 470 22,000 -2,025 Descending FlightAware ADS-B
Wed 02:48:22 AM 48.8940 10.6360 134° Southeast 385 443 20,600 -1,976 Descending FlightAware ADS-B
Wed 02:49:07 AM 48.8430 10.7180 133° Southeast 373 429 19,200 -1,933 Descending FlightAware ADS-B
Wed 02:49:52 AM 48.7890 10.7980 136° Southeast 370 426 17,700 -2,100 Descending FlightAware ADS-B
Wed 02:50:27 AM 48.7400 10.8670 137° Southeast 361 415 16,400 -1,950 Descending FlightAware ADS-B
Wed 02:51:12 AM 48.6890 10.9400 137° Southeast 350 403 15,100 -1,800 Descending FlightAware ADS-B
Wed 02:51:57 AM 48.6380 11.0120 137° Southeast 344 396 13,700 -1,906 Descending FlightAware ADS-B
Wed 02:52:37 AM 48.5910 11.0810 136° Southeast 338 389 12,400 -1,971 Descending FlightAware ADS-B
Wed 02:53:07 AM 48.5690 11.1490 116° Southeast 333 383 11,400 -1,200 Descending FlightAware ADS-B
Wed 02:53:47 AM 48.5580 11.2370 101° East 331 381 11,000 -706 Descending FlightAware ADS-B
Wed 02:54:32 AM 48.5480 11.3310 99° East 322 371 10,400 -880 Descending FlightAware ADS-B
Wed 02:55:02 AM 48.5400 11.4060 99° East 295 339 9,900 -1,091 Descending FlightAware ADS-B
Wed 02:55:27 AM 48.5340 11.4580 100° East 288 331 9,400 -982 Descending FlightAware ADS-B
Wed 02:55:57 AM 48.5270 11.5200 100° East 289 333 9,000 -400 Descending FlightAware ADS-B
Wed 02:56:27 AM 48.5200 11.5790 100° East 289 333 9,000  Level FlightAware ADS-B
Wed 02:56:52 AM 48.5150 11.6290 99° East 290 334 9,000 -218 Level FlightAware ADS-B
Wed 02:57:22 AM 48.5080 11.6880 100° East 286 329 8,800 -1,000 Descending FlightAware ADS-B
Wed 02:57:52 AM 48.5010 11.7480 100° East 287 330 8,000 -1,527 Descending FlightAware ADS-B
Wed 02:58:17 AM 48.4950 11.7980 100° East 287 330 7,400 -1,309 Descending FlightAware ADS-B
Wed 02:58:47 AM 48.4890 11.8550 99° East 283 326 6,800 -1,320 Descending FlightAware ADS-B
Wed 02:59:07 AM 48.4850 11.8940 99° East 281 323 6,300 -1,500 Descending FlightAware ADS-B
Wed 02:59:27 AM 48.4810 11.9330 99° East 278 320 5,800 -1,320 Descending FlightAware ADS-B
Wed 02:59:57 AM 48.4750 11.9890 99° East 274 315 5,200 -1,091 Descending FlightAware ADS-B
Wed 03:00:22 AM 48.4690 12.0360 101° East 264 304 4,800 -900 Descending FlightAware ADS-B
Wed 03:00:37 AM 48.4610 12.0600 117° Southeast 239 275 4,600 -800 Descending FlightAware ADS-B
Wed 03:00:52 AM 48.4470 12.0730 148° Southeast 221 254 4,400 -750 Descending FlightAware ADS-B
Wed 03:01:17 AM 48.4230 12.0810 168° South 217 250 4,100 -933 Descending FlightAware ADS-B
Wed 03:01:37 AM 48.4040 12.0850 172° South 198 228 3,700 -667 Descending FlightAware ADS-B
Wed 03:02:02 AM 48.3850 12.0650 215° Southwest 198 228 3,600 -150 Descending FlightAware ADS-B
Wed 03:02:17 AM 48.3830 12.0460 261° West 198 228 3,600  Level FlightAware ADS-B
Wed 03:02:27 AM 48.3830 12.0320 270° West 196 226 3,600 -150 Level FlightAware ADS-B
Wed 03:02:57 AM 48.3800 11.9980 262° West 179 206 3,500 -700 Descending FlightAware ADS-B
Wed 03:03:27 AM 48.3780 11.9590 266° West 164 189 2,900 -982 Descending FlightAware ADS-B
Wed 03:03:52 AM 48.3750 11.9320 261° West 145 167 2,600 -750 Descending FlightAware ADS-B
Wed 03:04:07 AM 48.3740 11.9170 264° West 135 155 2,400 -800 Descending FlightAware ADS-B
Wed 03:04:37 AM 48.3720 11.8890 264° West 137 158 2,000 -764 Descending FlightAware ADS-B
Wed 03:05:02 AM 48.3700 11.8650 263° West 136 157 1,700 -764 Descending FlightAware ADS-B
Wed 03:05:32 AM 48.3680 11.8380 264° West 131 151 1,300 -600 Descending FlightAware ADS-B
Wed 03:06:02 AM 48.3660 11.8100 264° West 127 146 1,100 -400 Descending FlightAware ADS-B

Login

Don't have an account? Register now (free) for customized features, flight alerts, and more!